Time;durP1;ratioP1;P1;durP2;ratioP2;P2;SDS_P1;SDS_P2;PMS_P1;PMS_P2;Temp;Humidity;BMP_temperature;BMP_pressure;BME280_temperature;BME280_humidity;BME280_pressure;Samples;Min_cycle;Max_cycle;Signal;HPM_P1;HPM_P2
2021/05/20 00:00:09;;;;;;;7.68;2.00;;;18.40;43.20;;;;;;5072451;28;20040;-78
2021/05/20 00:02:37;;;;;;;11.35;2.97;;;18.50;43.30;;;;;;5071771;28;20025;-78
2021/05/20 00:05:05;;;;;;;5.00;2.03;;;18.40;43.40;;;;;;5068401;28;20474;-78
2021/05/20 00:07:31;;;;;;;9.32;2.60;;;18.30;43.40;;;;;;5069136;28;20021;-77
2021/05/20 00:09:58;;;;;;;7.50;1.58;;;18.40;43.30;;;;;;5070046;28;20094;-78
2021/05/20 00:12:24;;;;;;;10.38;2.88;;;18.30;43.60;;;;;;5053651;28;20035;-77
2021/05/20 00:14:51;;;;;;;6.88;1.52;;;18.20;43.60;;;;;;5053661;28;20048;-78
2021/05/20 00:17:17;;;;;;;2.78;1.90;;;18.20;43.20;;;;;;5050571;28;20043;-77
2021/05/20 00:19:44;;;;;;;6.22;2.17;;;18.00;43.50;;;;;;5062086;28;20448;-75
2021/05/20 00:22:10;;;;;;;10.30;1.92;;;17.90;44.10;;;;;;5048995;28;20025;-76
2021/05/20 00:24:36;;;;;;;8.10;2.40;;;18.00;44.00;;;;;;5067283;28;20031;-77
2021/05/20 00:27:03;;;;;;;9.70;2.08;;;17.90;43.90;;;;;;5061759;28;20032;-76
2021/05/20 00:29:30;;;;;;;4.50;1.55;;;17.90;43.80;;;;;;5083821;28;20514;-77
2021/05/20 00:31:56;;;;;;;8.60;4.25;;;17.80;43.60;;;;;;5069588;28;20128;-77
2021/05/20 00:34:22;;;;;;;8.88;3.33;;;17.90;43.90;;;;;;5072350;28;20028;-76
2021/05/20 00:36:49;;;;;;;12.07;3.05;;;18.00;43.60;;;;;;5087673;28;20032;-76
2021/05/20 00:39:15;;;;;;;4.47;2.17;;;18.00;43.40;;;;;;5072929;28;20379;-77
2021/05/20 00:41:42;;;;;;;12.20;2.60;;;18.10;43.10;;;;;;5072075;28;20025;-77
2021/05/20 00:44:08;;;;;;;5.75;2.45;;;17.90;42.80;;;;;;5045536;28;20027;-77
2021/05/20 00:46:35;;;;;;;9.70;3.10;;;17.80;43.40;;;;;;5071781;28;20042;-76
2021/05/20 00:49:09;;;;;;;6.25;1.77;;;17.90;43.00;;;;;;5058161;28;20517;-76
2021/05/20 00:51:41;;;;;;;7.97;3.00;;;17.80;43.20;;;;;;5061038;28;20376;-77
2021/05/20 00:54:11;;;;;;;13.48;2.83;;;17.80;43.50;;;;;;5048967;28;20489;-77
2021/05/20 00:56:39;;;;;;;7.72;2.25;;;17.80;43.60;;;;;;5063201;28;20153;-77
2021/05/20 00:59:07;;;;;;;2.55;1.75;;;17.80;43.30;;;;;;5064243;28;20087;-76
2021/05/20 01:01:34;;;;;;;8.90;3.15;;;17.70;43.00;;;;;;5064294;28;20067;-76
2021/05/20 01:04:00;;;;;;;6.03;1.77;;;17.70;43.40;;;;;;5056827;28;20036;-77
2021/05/20 01:06:27;;;;;;;38.97;3.83;;;17.70;42.90;;;;;;5067690;28;20625;-77
2021/05/20 01:08:57;;;;;;;5.93;1.65;;;17.60;43.60;;;;;;5072329;28;20044;-75
2021/05/20 01:11:24;;;;;;;9.40;1.75;;;17.40;43.70;;;;;;5072963;28;20020;-76
2021/05/20 01:13:50;;;;;;;6.25;2.40;;;17.40;44.00;;;;;;5073009;28;20016;-77
2021/05/20 01:16:17;;;;;;;8.32;2.53;;;17.40;43.60;;;;;;5076001;28;20028;-77
2021/05/20 01:18:43;;;;;;;8.77;2.28;;;17.20;43.80;;;;;;5049306;28;20043;-76
2021/05/20 01:21:09;;;;;;;12.25;2.03;;;17.40;43.80;;;;;;5065179;28;20020;-75
2021/05/20 01:23:36;;;;;;;4.88;1.52;;;17.50;43.30;;;;;;5072476;28;20024;-77
2021/05/20 01:26:04;;;;;;;9.57;1.67;;;17.40;43.40;;;;;;5068987;28;20025;-76
2021/05/20 01:28:33;;;;;;;8.45;2.85;;;17.30;43.70;;;;;;5071893;28;20043;-77
2021/05/20 01:31:01;;;;;;;7.82;1.73;;;17.40;44.00;;;;;;5063115;28;20488;-77
2021/05/20 01:33:29;;;;;;;5.40;2.33;;;17.20;44.50;;;;;;5081214;28;20055;-76
2021/05/20 01:35:55;;;;;;;9.30;1.52;;;17.10;44.10;;;;;;5075811;28;20035;-76
2021/05/20 01:41:05;;;;;;;;;;;17.30;44.20;;;;;;5083435;28;20362;-75
2021/05/20 01:43:33;;;;;;;6.22;2.22;;;17.10;44.80;;;;;;5085141;28;19918;-76
2021/05/20 01:46:00;;;;;;;7.13;1.63;;;17.10;44.80;;;;;;5073869;28;20024;-75
2021/05/20 01:48:46;;;;;;;13.60;2.72;;;17.00;45.00;;;;;;5070603;28;20021;-76
2021/05/20 01:51:18;;;;;;;16.10;3.55;;;17.10;44.60;;;;;;5073072;28;20052;-76
2021/05/20 01:53:48;;;;;;;8.50;3.25;;;17.00;44.70;;;;;;5070140;28;20028;-75
2021/05/20 01:56:16;;;;;;;9.43;2.78;;;16.90;45.40;;;;;;5069430;28;20037;-77
2021/05/20 01:58:42;;;;;;;8.18;2.10;;;16.70;45.70;;;;;;5057489;28;20055;-77
2021/05/20 02:01:10;;;;;;;6.78;1.60;;;16.60;45.90;;;;;;5057625;28;20029;-76
2021/05/20 02:03:37;;;;;;;4.40;1.52;;;16.50;45.50;;;;;;5076611;28;20021;-77
2021/05/20 02:06:05;;;;;;;7.32;2.42;;;16.60;46.10;;;;;;5057574;28;20039;-77
2021/05/20 02:08:33;;;;;;;13.13;2.50;;;16.30;46.40;;;;;;5068910;28;20394;-75
2021/05/20 02:11:00;;;;;;;7.35;2.08;;;16.30;46.50;;;;;;5088493;28;20028;-76
2021/05/20 02:13:26;;;;;;;24.48;2.72;;;16.30;46.30;;;;;;5077123;28;20032;-75
2021/05/20 02:15:53;;;;;;;10.05;2.88;;;16.30;46.70;;;;;;5046651;28;20032;-75
2021/05/20 02:18:20;;;;;;;10.40;1.75;;;16.30;46.60;;;;;;5057140;28;20039;-80
2021/05/20 02:20:47;;;;;;;10.95;3.15;;;16.10;46.80;;;;;;5060304;28;20036;-78
2021/05/20 02:23:15;;;;;;;11.10;2.63;;;16.10;46.80;;;;;;5078154;28;20043;-78
2021/05/20 02:25:42;;;;;;;14.20;2.05;;;16.10;46.40;;;;;;5077424;28;20028;-77
2021/05/20 02:28:08;;;;;;;5.35;2.05;;;16.00;47.00;;;;;;5060450;28;20413;-79
2021/05/20 02:30:35;;;;;;;10.02;2.30;;;16.30;46.70;;;;;;5077226;28;20017;-78
2021/05/20 02:33:02;;;;;;;8.65;3.17;;;16.20;46.20;;;;;;5081818;28;20031;-77
2021/05/20 02:35:28;;;;;;;7.90;2.30;;;15.70;46.90;;;;;;5058794;28;20025;-77
2021/05/20 02:37:55;;;;;;;8.55;2.90;;;15.60;48.00;;;;;;5080213;28;20107;-78
2021/05/20 02:40:22;;;;;;;11.43;3.03;;;15.70;47.60;;;;;;5059638;28;20056;-77
2021/05/20 02:42:49;;;;;;;7.97;2.42;;;15.70;47.80;;;;;;5064866;28;20020;-78
2021/05/20 02:45:22;;;;;;;6.15;2.28;;;15.40;47.80;;;;;;5071025;28;20029;-77
2021/05/20 02:47:49;;;;;;;2.83;1.77;;;15.30;48.70;;;;;;5068390;28;20048;-77
2021/05/20 02:50:17;;;;;;;7.53;2.72;;;15.40;48.20;;;;;;5048289;28;20027;-78
2021/05/20 02:52:45;;;;;;;1.58;1.27;;;15.50;48.30;;;;;;5076054;28;20108;-78
2021/05/20 02:55:17;;;;;;;5.65;2.13;;;15.30;48.50;;;;;;5061318;28;20048;-77
2021/05/20 02:57:49;;;;;;;10.27;2.55;;;15.40;48.70;;;;;;5082137;28;20028;-77
2021/05/20 03:00:19;;;;;;;11.38;2.42;;;15.50;47.90;;;;;;5063973;28;20036;-77
2021/05/20 03:02:50;;;;;;;6.05;4.28;;;15.40;48.30;;;;;;5060900;28;20115;-78
2021/05/20 03:05:18;;;;;;;10.20;3.83;;;15.20;48.30;;;;;;5073470;28;20024;-77
2021/05/20 03:07:44;;;;;;;10.35;2.75;;;15.30;48.50;;;;;;5074065;28;20012;-76
2021/05/20 03:10:12;;;;;;;6.40;2.58;;;15.30;49.10;;;;;;5067333;28;20021;-78
2021/05/20 03:12:39;;;;;;;2.65;1.73;;;15.10;48.70;;;;;;5069416;28;20020;-79
2021/05/20 03:15:06;;;;;;;7.90;2.00;;;15.00;48.80;;;;;;5070805;28;20380;-78
2021/05/20 03:17:35;;;;;;;5.70;2.13;;;15.20;49.10;;;;;;5066490;28;20035;-77
2021/05/20 03:20:03;;;;;;;10.30;2.30;;;14.90;49.20;;;;;;5070347;28;20040;-77
2021/05/20 03:22:30;;;;;;;13.57;2.40;;;15.00;49.40;;;;;;5069948;28;20017;-77
2021/05/20 03:24:56;;;;;;;4.80;2.10;;;15.00;49.20;;;;;;5072733;28;20071;-78
2021/05/20 03:27:23;;;;;;;8.27;2.45;;;15.00;49.60;;;;;;5075352;28;20024;-78
2021/05/20 03:29:49;;;;;;;7.35;2.85;;;15.00;49.40;;;;;;5068689;28;20024;-76
2021/05/20 03:32:15;;;;;;;5.10;2.25;;;15.10;49.50;;;;;;5074486;28;20036;-76
2021/05/20 03:34:42;;;;;;;11.90;2.15;;;15.00;49.60;;;;;;5054300;28;20059;-77
2021/05/20 03:37:09;;;;;;;10.45;2.63;;;15.00;49.10;;;;;;5055034;28;20540;-77
2021/05/20 03:39:35;;;;;;;10.75;3.25;;;14.70;50.00;;;;;;5075391;28;20029;-79
2021/05/20 03:42:03;;;;;;;12.55;2.80;;;14.60;50.50;;;;;;5075647;28;20425;-77
2021/05/20 03:44:30;;;;;;;11.70;4.05;;;14.60;50.80;;;;;;5080582;28;20016;-79
2021/05/20 03:46:57;;;;;;;13.35;4.90;;;14.50;50.20;;;;;;5075397;28;20111;-77
2021/05/20 03:49:24;;;;;;;9.80;3.25;;;14.50;50.80;;;;;;5078436;28;20032;-78
2021/05/20 03:51:50;;;;;;;4.10;2.05;;;14.60;50.80;;;;;;5062802;28;20054;-78
2021/05/20 03:54:17;;;;;;;6.97;2.80;;;14.80;51.40;;;;;;5076116;28;20032;-77
2021/05/20 03:56:43;;;;;;;12.85;3.42;;;14.80;50.90;;;;;;5077574;28;20025;-76
2021/05/20 03:59:10;;;;;;;9.13;3.13;;;14.70;50.70;;;;;;5083147;28;20467;-78
2021/05/20 04:01:39;;;;;;;11.05;3.42;;;14.80;51.00;;;;;;5082991;28;20044;-77
2021/05/20 04:04:06;;;;;;;9.98;2.92;;;14.60;51.30;;;;;;5084904;28;20028;-76
2021/05/20 04:06:33;;;;;;;12.05;3.28;;;14.80;50.90;;;;;;5087361;28;20020;-77
2021/05/20 04:08:59;;;;;;;12.90;4.43;;;14.60;50.80;;;;;;5089794;28;20025;-77
2021/05/20 04:11:28;;;;;;;6.18;3.15;;;14.40;51.50;;;;;;5065218;28;20475;-78
2021/05/20 04:13:55;;;;;;;4.90;2.28;;;14.60;51.10;;;;;;5044488;28;20025;-78
2021/05/20 04:16:24;;;;;;;7.00;3.58;;;14.30;51.60;;;;;;5082768;28;20108;-77
2021/05/20 04:18:51;;;;;;;10.13;2.50;;;14.60;51.80;;;;;;5066740;28;20028;-77
2021/05/20 04:21:18;;;;;;;8.23;2.53;;;14.70;51.60;;;;;;5063175;28;20056;-77
2021/05/20 04:23:47;;;;;;;10.57;2.45;;;14.70;51.00;;;;;;5051590;28;20047;-77
2021/05/20 04:26:18;;;;;;;3.72;2.25;;;14.30;51.40;;;;;;5056722;28;20097;-77
2021/05/20 04:28:47;;;;;;;11.97;3.23;;;14.30;51.70;;;;;;5067704;28;20102;-78
2021/05/20 04:31:13;;;;;;;11.75;2.95;;;14.40;52.10;;;;;;5077392;28;20048;-77
2021/05/20 04:33:41;;;;;;;7.97;2.58;;;14.20;52.90;;;;;;5080172;28;20084;-79
2021/05/20 04:36:08;;;;;;;7.55;2.55;;;14.60;52.80;;;;;;5078500;28;20028;-77
2021/05/20 04:38:34;;;;;;;13.38;3.45;;;14.60;51.90;;;;;;5055969;28;20029;-77
2021/05/20 04:41:01;;;;;;;13.15;2.50;;;14.70;52.20;;;;;;5081321;28;20047;-77
2021/05/20 04:43:27;;;;;;;8.82;3.85;;;14.50;52.80;;;;;;5056031;28;20027;-77
2021/05/20 04:45:54;;;;;;;9.93;3.03;;;14.50;52.70;;;;;;5060349;28;20088;-77
2021/05/20 04:48:20;;;;;;;9.27;2.85;;;14.50;53.00;;;;;;5042957;28;20079;-77
2021/05/20 04:50:46;;;;;;;12.25;2.63;;;14.30;52.40;;;;;;5080537;28;20020;-77
2021/05/20 04:53:13;;;;;;;8.18;3.70;;;14.30;52.90;;;;;;5081139;28;20051;-78
2021/05/20 04:55:39;;;;;;;4.85;3.03;;;14.40;52.70;;;;;;5063237;28;20024;-78
2021/05/20 04:58:06;;;;;;;11.20;3.45;;;14.50;53.30;;;;;;5075486;28;20056;-78
2021/05/20 05:00:32;;;;;;;7.32;2.72;;;14.80;51.60;;;;;;5068019;28;20021;-79
2021/05/20 05:02:59;;;;;;;11.63;3.25;;;14.70;51.40;;;;;;5064874;28;20032;-80
2021/05/20 05:05:25;;;;;;;6.88;2.13;;;14.40;52.70;;;;;;5071764;28;20028;-79
2021/05/20 05:07:51;;;;;;;7.95;3.28;;;14.50;52.40;;;;;;5076578;28;20464;-80
2021/05/20 05:10:18;;;;;;;9.32;2.90;;;14.30;52.90;;;;;;5076654;28;20028;-79
2021/05/20 05:12:44;;;;;;;10.73;2.65;;;14.50;52.80;;;;;;5060168;28;20067;-78
2021/05/20 05:15:11;;;;;;;14.25;3.58;;;14.60;51.90;;;;;;5059991;28;20051;-79
2021/05/20 05:17:37;;;;;;;11.85;2.63;;;14.30;52.70;;;;;;5052655;28;20028;-80
2021/05/20 05:20:06;;;;;;;4.60;2.80;;;14.10;53.60;;;;;;5079403;28;20021;-79
2021/05/20 05:22:33;;;;;;;8.38;2.45;;;14.20;54.20;;;;;;5068558;28;20035;-79
2021/05/20 05:25:00;;;;;;;10.13;3.05;;;14.20;54.10;;;;;;5077490;28;20047;-80
2021/05/20 05:27:26;;;;;;;7.00;3.70;;;14.20;54.10;;;;;;5074485;28;20012;-79
2021/05/20 05:29:53;;;;;;;6.68;2.22;;;14.20;54.00;;;;;;5078404;28;20029;-81
2021/05/20 05:32:19;;;;;;;11.65;2.85;;;14.20;54.30;;;;;;5078096;28;20032;-78
2021/05/20 05:34:45;;;;;;;3.55;2.33;;;14.20;54.10;;;;;;5079745;28;20456;-78
2021/05/20 05:37:12;;;;;;;4.40;2.38;;;14.10;54.50;;;;;;5077022;28;20391;-79
2021/05/20 05:39:38;;;;;;;18.00;4.43;;;14.10;53.80;;;;;;5077659;28;20460;-80
2021/05/20 05:42:05;;;;;;;12.55;4.05;;;13.80;54.80;;;;;;5078412;28;20035;-79
2021/05/20 05:44:31;;;;;;;12.10;3.10;;;13.80;54.80;;;;;;5045069;28;20021;-78
2021/05/20 05:46:58;;;;;;;7.72;2.72;;;13.80;54.80;;;;;;5078890;28;20082;-79
2021/05/20 05:49:33;;;;;;;5.68;2.53;;;13.90;55.10;;;;;;5069011;28;20139;-80
2021/05/20 05:52:04;;;;;;;12.32;3.22;;;13.90;54.90;;;;;;5075533;28;20071;-77
2021/05/20 05:54:31;;;;;;;15.05;3.65;;;14.10;54.50;;;;;;5077492;28;20081;-77
2021/05/20 05:56:57;;;;;;;6.75;2.40;;;13.80;55.40;;;;;;5068947;28;20030;-78
2021/05/20 05:59:24;;;;;;;3.40;2.08;;;14.00;54.90;;;;;;5079585;28;20050;-77
2021/05/20 06:01:50;;;;;;;9.40;3.70;;;13.70;55.40;;;;;;5079563;28;20024;-78
2021/05/20 06:04:18;;;;;;;6.53;2.10;;;13.50;56.00;;;;;;5073482;28;20410;-78
2021/05/20 06:06:45;;;;;;;6.40;2.25;;;13.40;56.30;;;;;;5071022;28;20024;-77
2021/05/20 06:09:13;;;;;;;7.55;2.97;;;13.40;55.30;;;;;;5084057;28;20427;-78
2021/05/20 06:11:42;;;;;;;9.55;3.53;;;13.40;55.80;;;;;;5057820;28;20025;-78
2021/05/20 06:14:10;;;;;;;5.25;2.00;;;13.80;54.60;;;;;;5060120;28;20036;-78
2021/05/20 06:16:40;;;;;;;8.50;2.25;;;13.50;55.00;;;;;;5077548;28;20034;-77
2021/05/20 06:19:07;;;;;;;25.75;5.10;;;13.60;54.70;;;;;;5058297;28;20376;-77
2021/05/20 06:21:34;;;;;;;5.47;2.17;;;13.60;54.40;;;;;;5074388;28;20448;-77
2021/05/20 06:24:01;;;;;;;4.43;2.33;;;13.50;54.50;;;;;;5077437;28;20141;-80
2021/05/20 06:26:29;;;;;;;12.55;3.50;;;13.50;55.40;;;;;;5058340;28;20517;-78
2021/05/20 06:28:55;;;;;;;11.75;5.65;;;13.50;55.20;;;;;;5076148;28;20052;-79
2021/05/20 06:31:22;;;;;;;14.95;2.88;;;13.50;55.70;;;;;;5075548;28;20433;-80
2021/05/20 06:33:49;;;;;;;9.25;2.60;;;13.70;55.40;;;;;;5076123;28;20059;-78
2021/05/20 06:36:16;;;;;;;7.72;3.25;;;13.70;55.10;;;;;;5065992;28;20037;-78
2021/05/20 06:38:43;;;;;;;8.25;2.33;;;13.60;55.20;;;;;;5069929;28;21650;-77
2021/05/20 06:41:09;;;;;;;14.15;4.07;;;13.70;55.00;;;;;;5074278;28;20037;-79
2021/05/20 06:43:39;;;;;;;11.68;2.30;;;13.70;54.80;;;;;;5075861;28;20031;-80
2021/05/20 06:46:08;;;;;;;5.90;2.70;;;14.20;53.30;;;;;;5074846;28;20025;-80
2021/05/20 06:48:35;;;;;;;11.00;3.30;;;14.20;53.80;;;;;;5074772;28;20088;-81
2021/05/20 06:51:04;;;;;;;11.18;3.90;;;14.10;53.90;;;;;;5075319;28;20033;-79
2021/05/20 06:53:31;;;;;;;10.00;2.72;;;14.30;53.60;;;;;;5073918;28;20060;-78
2021/05/20 06:56:01;;;;;;;8.05;2.20;;;14.20;53.20;;;;;;5074459;28;20025;-79
2021/05/20 07:01:12;;;;;;;11.38;5.45;;;13.70;55.00;;;;;;5078027;28;20116;-79
2021/05/20 07:03:39;;;;;;;7.63;2.85;;;13.80;54.90;;;;;;5057666;28;20028;-78
2021/05/20 07:06:06;;;;;;;13.48;2.92;;;14.00;54.10;;;;;;5068647;28;20028;-78
2021/05/20 07:08:33;;;;;;;11.82;2.38;;;13.90;54.10;;;;;;5064209;28;20032;-78
2021/05/20 07:10:59;;;;;;;7.97;2.47;;;13.80;54.90;;;;;;5061286;28;20028;-77
2021/05/20 07:13:26;;;;;;;10.73;2.30;;;13.70;55.10;;;;;;5078417;28;20070;-78
2021/05/20 07:15:52;;;;;;;15.13;3.70;;;13.60;55.90;;;;;;5079677;28;20032;-78
2021/05/20 07:18:19;;;;;;;10.18;3.15;;;13.50;55.40;;;;;;5082882;28;20036;-78
2021/05/20 07:20:45;;;;;;;11.20;3.22;;;13.90;54.70;;;;;;5061325;28;20062;-78
2021/05/20 07:23:17;;;;;;;11.05;3.53;;;13.80;54.50;;;;;;5074522;28;20033;-79
2021/05/20 07:25:44;;;;;;;14.98;4.65;;;13.70;55.60;;;;;;5059045;28;20025;-79
2021/05/20 07:28:11;;;;;;;2.55;1.85;;;13.60;55.50;;;;;;5075409;28;20039;-79
2021/05/20 07:30:38;;;;;;;6.65;2.85;;;13.60;55.20;;;;;;5078172;28;20490;-79
2021/05/20 07:33:05;;;;;;;7.43;2.70;;;13.50;56.10;;;;;;5073241;28;20036;-77
2021/05/20 07:35:32;;;;;;;10.40;5.25;;;13.60;56.10;;;;;;5065512;28;20040;-78
2021/05/20 07:37:58;;;;;;;7.68;3.05;;;13.60;55.60;;;;;;5072284;28;20032;-78
2021/05/20 07:40:25;;;;;;;10.82;3.15;;;13.70;55.20;;;;;;5055786;28;20025;-80
2021/05/20 07:42:51;;;;;;;5.22;2.38;;;13.60;55.80;;;;;;5072957;28;20410;-78
2021/05/20 07:45:18;;;;;;;8.77;2.28;;;13.70;55.60;;;;;;5057434;28;20047;-78
2021/05/20 07:47:47;;;;;;;9.50;2.83;;;13.70;55.30;;;;;;5072347;28;20468;-79
2021/05/20 07:50:15;;;;;;;7.35;2.63;;;13.50;55.40;;;;;;5072975;28;20459;-79
2021/05/20 07:52:42;;;;;;;11.65;3.83;;;13.50;56.20;;;;;;5074059;28;20483;-77
2021/05/20 07:55:09;;;;;;;7.22;2.72;;;13.60;55.60;;;;;;5078379;28;20058;-79
2021/05/20 07:57:35;;;;;;;3.53;2.42;;;13.60;55.50;;;;;;5066818;28;20111;-78
2021/05/20 08:00:02;;;;;;;12.23;3.90;;;13.40;56.10;;;;;;5061416;28;20063;-78
2021/05/20 08:02:46;;;;;;;5.00;2.50;;;13.50;56.20;;;;;;5057279;28;20028;-78
2021/05/20 08:05:27;;;;;;;5.32;2.83;;;13.60;55.80;;;;;;5072105;28;20028;-79
2021/05/20 08:12:49;;;;;;;8.80;2.85;;;13.30;56.80;;;;;;5077490;28;20036;-80
2021/05/20 08:15:16;;;;;;;11.15;2.75;;;13.40;56.90;;;;;;5063857;28;20063;-79
2021/05/20 08:17:42;;;;;;;5.55;3.20;;;13.20;56.60;;;;;;5077992;28;20039;-80
2021/05/20 08:20:09;;;;;;;13.38;3.08;;;13.40;56.60;;;;;;5075094;28;20025;-79
2021/05/20 08:22:37;;;;;;;14.00;3.38;;;13.30;56.90;;;;;;5072743;28;20040;-79
2021/05/20 08:25:06;;;;;;;6.00;2.50;;;13.40;56.90;;;;;;5060096;28;20024;-79
2021/05/20 08:27:33;;;;;;;13.63;3.85;;;13.40;56.80;;;;;;5069646;28;20089;-80
2021/05/20 08:30:00;;;;;;;5.80;2.67;;;13.30;56.60;;;;;;5067036;28;20074;-80
2021/05/20 08:32:27;;;;;;;5.93;2.65;;;13.20;56.30;;;;;;5077736;28;20028;-80
2021/05/20 08:34:53;;;;;;;12.65;3.92;;;13.40;56.30;;;;;;5078003;28;20102;-80
2021/05/20 08:37:20;;;;;;;10.10;4.70;;;13.40;56.30;;;;;;5057649;28;20375;-80
2021/05/20 08:39:46;;;;;;;6.28;3.03;;;13.30;55.70;;;;;;5076919;28;20108;-80
2021/05/20 08:42:12;;;;;;;4.68;2.25;;;13.40;56.20;;;;;;5081992;28;20471;-78
2021/05/20 08:44:39;;;;;;;5.95;2.47;;;13.30;56.20;;;;;;5058185;28;20032;-79
2021/05/20 08:47:05;;;;;;;16.35;3.67;;;13.10;56.40;;;;;;5065214;28;20028;-80
2021/05/20 08:49:32;;;;;;;8.13;2.13;;;13.20;56.40;;;;;;5069577;28;20021;-80
2021/05/20 08:51:59;;;;;;;11.93;2.58;;;13.10;56.40;;;;;;5057600;28;20090;-80
2021/05/20 08:54:26;;;;;;;16.83;3.05;;;13.30;55.90;;;;;;5074699;28;20032;-80
2021/05/20 08:56:54;;;;;;;18.50;3.40;;;13.30;55.80;;;;;;5056538;28;20033;-79
2021/05/20 08:59:23;;;;;;;4.85;3.08;;;13.10;56.20;;;;;;5077138;28;20016;-79
2021/05/20 09:01:51;;;;;;;5.53;3.03;;;13.10;55.80;;;;;;5069998;28;20028;-80
2021/05/20 09:04:21;;;;;;;15.45;3.42;;;13.00;55.70;;;;;;5072844;28;20025;-79
2021/05/20 09:06:52;;;;;;;7.07;3.30;;;13.00;55.90;;;;;;5059680;28;20108;-80
2021/05/20 09:09:23;;;;;;;9.65;2.97;;;13.10;55.50;;;;;;5047998;28;20425;-79
2021/05/20 09:11:52;;;;;;;8.18;2.15;;;13.10;55.40;;;;;;5073551;28;20017;-78
2021/05/20 09:14:33;;;;;;;6.88;2.80;;;13.00;55.30;;;;;;5059416;28;20051;-78
2021/05/20 09:17:17;;;;;;;5.47;2.47;;;13.00;55.50;;;;;;5067944;28;20032;-78
2021/05/20 09:19:55;;;;;;;3.13;2.00;;;13.00;55.20;;;;;;5075275;28;20360;-77
2021/05/20 09:22:21;;;;;;;5.63;2.55;;;13.00;55.10;;;;;;5059276;28;21572;-78
2021/05/20 09:24:50;;;;;;;4.50;2.28;;;13.00;55.30;;;;;;5075687;28;20027;-78
2021/05/20 09:27:35;;;;;;;3.97;2.85;;;12.80;55.50;;;;;;5076876;28;20027;-78
2021/05/20 09:30:09;;;;;;;9.18;2.83;;;12.70;56.10;;;;;;5069638;28;20029;-79
2021/05/20 09:32:47;;;;;;;9.85;4.30;;;12.70;56.20;;;;;;5059014;28;20379;-78
2021/05/20 09:35:16;;;;;;;8.45;2.80;;;12.80;55.70;;;;;;5071922;28;20037;-78
2021/05/20 09:37:47;;;;;;;7.35;2.45;;;13.00;55.20;;;;;;5062647;28;20445;-78
2021/05/20 09:40:15;;;;;;;8.88;1.98;;;13.00;55.00;;;;;;5074750;28;20388;-78
2021/05/20 09:42:45;;;;;;;6.50;2.42;;;12.80;55.40;;;;;;5073704;28;20063;-78
2021/05/20 09:45:13;;;;;;;11.55;3.10;;;12.80;55.30;;;;;;5074985;28;20047;-78
2021/05/20 09:47:40;;;;;;;7.95;2.97;;;12.90;55.00;;;;;;5068648;28;20025;-78
2021/05/20 09:50:16;;;;;;;3.70;2.08;;;12.80;55.20;;;;;;5075706;28;20023;-78
2021/05/20 09:52:42;;;;;;;10.20;3.35;;;13.10;54.00;;;;;;5075132;28;20040;-79
2021/05/20 09:55:27;;;;;;;4.88;2.30;;;13.00;54.20;;;;;;5075049;28;20032;-78
2021/05/20 09:57:55;;;;;;;4.20;2.15;;;13.00;54.50;;;;;;5075835;28;20123;-78
2021/05/20 10:00:26;;;;;;;3.55;1.67;;;13.00;54.30;;;;;;5066274;28;20025;-78
2021/05/20 10:03:09;;;;;;;4.65;1.77;;;13.00;54.70;;;;;;5058310;28;20020;-78
2021/05/20 10:05:40;;;;;;;6.05;2.40;;;12.80;55.00;;;;;;5070167;28;20055;-78
2021/05/20 10:08:09;;;;;;;11.35;3.35;;;12.80;54.50;;;;;;5068469;28;20021;-78
2021/05/20 10:10:39;;;;;;;8.25;3.30;;;13.10;54.20;;;;;;5073867;28;20025;-78
2021/05/20 10:13:13;;;;;;;10.05;2.30;;;13.20;53.70;;;;;;5075637;28;20378;-77
2021/05/20 10:15:40;;;;;;;5.88;2.78;;;13.40;53.50;;;;;;5050595;28;20444;-78
2021/05/20 10:18:13;;;;;;;9.20;3.42;;;13.30;53.40;;;;;;5074437;28;20434;-79
2021/05/20 10:20:41;;;;;;;4.07;1.70;;;13.10;53.90;;;;;;5058617;28;20119;-79
2021/05/20 10:23:10;;;;;;;5.88;2.58;;;13.10;53.90;;;;;;5073039;28;20029;-79
2021/05/20 10:25:38;;;;;;;5.55;1.65;;;13.00;53.80;;;;;;5056717;28;20016;-77
2021/05/20 10:28:07;;;;;;;10.80;2.65;;;13.10;54.20;;;;;;5075243;28;20016;-78
2021/05/20 10:30:36;;;;;;;6.25;2.67;;;13.10;53.90;;;;;;5075028;28;20020;-78
2021/05/20 10:33:03;;;;;;;10.23;2.80;;;12.90;54.60;;;;;;5054138;28;20116;-78
2021/05/20 10:35:51;;;;;;;6.55;2.38;;;12.80;54.50;;;;;;5066242;28;20042;-77
2021/05/20 10:38:30;;;;;;;2.90;2.47;;;12.70;54.80;;;;;;5056799;28;20032;-78
2021/05/20 10:41:15;;;;;;;13.85;3.22;;;12.90;54.70;;;;;;5075500;28;20112;-78
2021/05/20 10:43:42;;;;;;;6.22;3.08;;;13.10;54.00;;;;;;5075443;28;20021;-78
2021/05/20 10:46:14;;;;;;;3.95;2.83;;;13.20;53.70;;;;;;5073638;28;20082;-77
2021/05/20 10:48:52;;;;;;;6.35;3.03;;;13.10;54.30;;;;;;5052738;28;20071;-77
2021/05/20 10:51:27;;;;;;;6.38;4.22;;;12.90;54.80;;;;;;5069226;28;20444;-80
2021/05/20 10:53:57;;;;;;;5.45;2.75;;;12.90;54.50;;;;;;5060181;28;20040;-77
2021/05/20 10:56:24;;;;;;;8.32;1.98;;;12.70;55.10;;;;;;5074762;28;20115;-77
2021/05/20 10:58:52;;;;;;;7.85;2.78;;;12.80;54.80;;;;;;5044851;28;20464;-77
2021/05/20 11:01:21;;;;;;;9.38;3.65;;;12.80;55.20;;;;;;5056461;28;20040;-77
2021/05/20 11:03:51;;;;;;;7.32;4.00;;;12.80;54.70;;;;;;5070243;28;20039;-78
2021/05/20 11:06:23;;;;;;;7.65;2.60;;;12.80;55.30;;;;;;5066023;28;20021;-77
2021/05/20 11:08:49;;;;;;;9.55;2.75;;;13.00;54.30;;;;;;5074540;28;20095;-78
2021/05/20 11:11:31;;;;;;;6.30;2.40;;;12.90;54.30;;;;;;5068617;28;20080;-77
2021/05/20 11:14:05;;;;;;;9.32;2.40;;;12.80;54.80;;;;;;5059399;28;20462;-77
2021/05/20 11:16:33;;;;;;;11.35;3.08;;;12.80;55.00;;;;;;5067418;28;20479;-77
2021/05/20 11:19:29;;;;;;;5.47;1.95;;;12.80;54.50;;;;;;5057984;28;20448;-79
2021/05/20 11:21:58;;;;;;;8.93;3.05;;;12.70;55.10;;;;;;5057855;28;20448;-77
2021/05/20 11:24:28;;;;;;;9.43;2.60;;;12.80;55.40;;;;;;5072195;28;20513;-77
2021/05/20 11:26:57;;;;;;;4.78;2.92;;;12.90;55.30;;;;;;5071222;28;20077;-77
2021/05/20 11:29:25;;;;;;;10.88;2.38;;;12.80;55.90;;;;;;5069179;28;20100;-77
2021/05/20 11:32:02;;;;;;;7.68;4.05;;;12.80;55.40;;;;;;5050607;28;20039;-78
2021/05/20 11:37:08;;;;;;;8.63;2.40;;;12.50;56.20;;;;;;5080078;28;20020;-77
2021/05/20 11:39:35;;;;;;;4.75;2.45;;;12.50;57.00;;;;;;5051189;28;20016;-77
2021/05/20 11:42:04;;;;;;;9.30;3.15;;;12.50;56.40;;;;;;5056186;28;20036;-77
2021/05/20 11:44:31;;;;;;;4.90;3.00;;;12.30;56.90;;;;;;5056710;28;20411;-77
2021/05/20 11:47:05;;;;;;;5.32;2.10;;;12.20;57.40;;;;;;5061096;28;20474;-77
2021/05/20 11:49:33;;;;;;;5.72;1.98;;;12.30;57.00;;;;;;5074279;28;20359;-77
2021/05/20 11:52:04;;;;;;;5.82;2.67;;;12.30;57.00;;;;;;5074041;28;20020;-78
2021/05/20 11:54:33;;;;;;;5.72;3.40;;;12.50;56.60;;;;;;5048970;28;20056;-77
2021/05/20 11:57:01;;;;;;;8.57;3.78;;;12.20;57.30;;;;;;5060989;28;20341;-77
2021/05/20 11:59:37;;;;;;;7.38;2.75;;;12.30;56.80;;;;;;5055416;28;20375;-77
2021/05/20 12:02:05;;;;;;;12.95;5.05;;;12.40;56.70;;;;;;5052190;28;20120;-77
2021/05/20 12:04:32;;;;;;;7.70;3.22;;;12.70;56.50;;;;;;5039300;28;20040;-78
2021/05/20 12:07:01;;;;;;;3.05;2.22;;;12.50;56.20;;;;;;5073073;28;20444;-77
2021/05/20 12:09:28;;;;;;;4.15;3.42;;;12.30;57.20;;;;;;5074511;28;20099;-77
2021/05/20 12:11:54;;;;;;;8.52;2.47;;;12.50;56.20;;;;;;5073832;28;20112;-77
2021/05/20 12:14:23;;;;;;;12.23;4.68;;;12.20;57.60;;;;;;5074149;28;20475;-77
2021/05/20 12:17:10;;;;;;;7.78;4.47;;;12.10;57.60;;;;;;5062677;28;20492;-77
2021/05/20 12:19:51;;;;;;;6.90;3.95;;;12.00;58.00;;;;;;5036914;28;20033;-76
2021/05/20 12:22:29;;;;;;;3.83;2.10;;;12.10;57.20;;;;;;5070018;28;20025;-77
2021/05/20 12:25:05;;;;;;;7.65;2.95;;;12.00;57.50;;;;;;5058541;28;20025;-77
2021/05/20 12:27:51;;;;;;;10.95;3.63;;;12.20;57.10;;;;;;5058021;28;20055;-78
2021/05/20 12:30:25;;;;;;;4.40;2.13;;;12.10;56.90;;;;;;5074497;28;20020;-77
2021/05/20 12:33:06;;;;;;;3.03;2.55;;;12.20;57.40;;;;;;5056043;28;20119;-77
2021/05/20 12:35:42;;;;;;;1.88;1.77;;;12.10;57.50;;;;;;5058864;28;20100;-78
2021/05/20 12:38:13;;;;;;;7.00;2.20;;;12.20;57.10;;;;;;5073737;28;20358;-77
2021/05/20 12:40:44;;;;;;;3.47;2.45;;;12.30;56.80;;;;;;5072874;28;20074;-77
2021/05/20 12:43:24;;;;;;;7.88;2.42;;;12.00;57.50;;;;;;5054852;28;20056;-77
2021/05/20 12:45:57;;;;;;;3.40;2.30;;;12.00;57.80;;;;;;5073427;28;20016;-77
2021/05/20 12:48:38;;;;;;;13.55;2.95;;;12.00;57.60;;;;;;5072074;28;20029;-77
2021/05/20 12:51:07;;;;;;;13.63;2.83;;;12.30;56.60;;;;;;5042238;28;20448;-77
2021/05/20 12:53:37;;;;;;;6.07;3.40;;;12.00;57.10;;;;;;5055933;28;20090;-77
2021/05/20 12:56:27;;;;;;;9.88;2.92;;;11.90;57.80;;;;;;5069867;28;20012;-78
2021/05/20 12:59:09;;;;;;;13.30;2.88;;;12.00;57.80;;;;;;5073150;28;20047;-77
2021/05/20 13:02:01;;;;;;;6.20;2.92;;;12.20;56.70;;;;;;5050766;28;20039;-77
2021/05/20 13:04:32;;;;;;;7.43;2.90;;;12.20;56.90;;;;;;5063175;28;20035;-77